Time;durP1;ratioP1;P1;durP2;ratioP2;P2;SDS_P1;SDS_P2;PMS_P1;PMS_P2;Temp;Humidity;BMP_temperature;BMP_pressure;BME280_temperature;BME280_humidity;BME280_pressure;Samples;Min_cycle;Max_cycle;Signal;HPM_P1;HPM_P2
2022/12/10 00:04:21;;;;;;;83.07;33.15;;;;;;;0.56;100.00;99791.31;3476835;82;98539;-87
2022/12/10 00:09:22;;;;;;;90.70;31.83;;;;;;;0.58;100.00;99789.64;3482736;83;33233;-87
2022/12/10 00:14:23;;;;;;;82.53;30.90;;;;;;;0.61;100.00;99787.06;3432678;84;98787;-88
2022/12/10 00:19:25;;;;;;;76.53;30.40;;;;;;;0.62;100.00;99787.30;3443600;84;32521;-87
2022/12/10 00:24:26;;;;;;;89.00;32.53;;;;;;;0.64;100.00;99794.55;3473013;81;98847;-88
2022/12/10 00:29:27;;;;;;;88.70;31.37;;;;;;;0.63;100.00;99794.32;3481471;83;32448;-88
2022/12/10 00:34:29;;;;;;;86.77;31.67;;;;;;;0.63;100.00;99797.58;3473538;83;98430;-87
2022/12/10 00:39:29;;;;;;;91.97;33.33;;;;;;;0.65;100.00;99787.20;3483354;83;32484;-88
2022/12/10 00:44:30;;;;;;;78.73;30.97;;;;;;;0.64;100.00;99787.78;3474261;81;98870;-88
2022/12/10 00:49:31;;;;;;;82.50;32.63;;;;;;;0.61;100.00;99791.12;3481938;84;32752;-88
2022/12/10 00:54:32;;;;;;;89.97;34.63;;;;;;;0.58;100.00;99791.80;3480385;83;98963;-88
2022/12/10 00:59:32;;;;;;;97.05;35.45;;;;;;;0.60;100.00;99798.25;3438900;85;33143;-87
2022/12/10 01:04:33;;;;;;;84.17;31.52;;;;;;;0.57;100.00;99802.39;3478688;82;98933;-88
2022/12/10 01:09:34;;;;;;;77.73;31.70;;;;;;;0.58;100.00;99799.11;3487061;83;25877;-87
2022/12/10 01:14:36;;;;;;;83.60;34.60;;;;;;;0.57;100.00;99801.05;3478894;81;98915;-88
2022/12/10 01:19:37;;;;;;;83.17;32.80;;;;;;;0.55;100.00;99803.84;3485599;83;26230;-87
2022/12/10 01:24:38;;;;;;;85.93;33.60;;;;;;;0.52;100.00;99793.10;3479239;82;98916;-88
2022/12/10 01:29:39;;;;;;;86.90;33.95;;;;;;;0.52;100.00;99803.13;3484631;83;26349;-88
2022/12/10 01:34:39;;;;;;;86.63;33.53;;;;;;;0.55;100.00;99808.67;3479295;81;98760;-88
2022/12/10 01:39:40;;;;;;;83.47;34.80;;;;;;;0.53;100.00;99812.28;3485099;83;25873;-87
2022/12/10 01:44:46;;;;;;;82.00;32.93;;;;;;;0.55;100.00;99808.67;3470579;83;98714;-88
2022/12/10 01:49:47;;;;;;;;;;;;;;;0.56;100.00;99808.13;3418815;85;28201;-88
2022/12/10 01:54:48;;;;;;;70.93;29.80;;;;;;;0.55;100.00;99812.73;3479799;82;84590;-88
2022/12/10 01:59:54;;;;;;;79.43;32.77;;;;;;;0.52;100.00;99803.93;3482992;83;26332;-88
2022/12/10 02:05:11;;;;;;;;;;;;;;;0.50;100.00;99798.03;3478896;81;99006;-87
2022/12/10 02:10:57;;;;;;;74.77;31.90;;;;;;;0.52;100.00;99795.00;3486791;83;28823;-88
2022/12/10 02:16:06;;;;;;;85.22;33.90;;;;;;;0.48;100.00;99796.22;3478481;82;98580;-87
2022/12/10 02:21:13;;;;;;;68.87;29.95;;;;;;;0.46;100.00;99793.05;3452189;84;30235;-87
2022/12/10 02:26:19;;;;;;;73.70;31.15;;;;;;;0.48;100.00;99798.12;3487480;83;98848;-87
2022/12/10 02:31:23;;;;;;;;;;;;;;;0.52;100.00;99799.06;3459552;84;28298;-88
2022/12/10 02:36:29;;;;;;;74.50;29.40;;;;;;;0.46;100.00;99799.83;3451458;83;84693;-87
2022/12/10 02:41:37;;;;;;;81.10;31.00;;;;;;;0.43;100.00;99797.75;3442472;84;27449;-89
2022/12/10 02:46:41;;;;;;;73.17;30.90;;;;;;;0.43;100.00;99794.23;3450683;82;98572;-88
2022/12/10 02:51:42;;;;;;;68.85;29.10;;;;;;;0.42;100.00;99793.46;3458401;84;32245;-88
2022/12/10 02:56:48;;;;;;;72.87;31.07;;;;;;;0.42;100.00;99794.02;3450073;83;98701;-87
2022/12/10 03:01:56;;;;;;;;;;;;;;;0.40;100.00;99794.33;3452794;84;27452;-87
2022/12/10 03:07:05;;;;;;;71.63;27.20;;;;;;;0.39;100.00;99796.80;3443080;84;84547;-88
2022/12/10 03:12:17;;;;;;;67.97;27.98;;;;;;;0.36;100.00;99790.70;3447501;84;33120;-87
2022/12/10 03:17:19;;;;;;;67.23;27.80;;;;;;;0.33;100.00;99795.98;3446509;83;98445;-87
2022/12/10 03:22:20;;;;;;;70.27;28.87;;;;;;;0.37;100.00;99802.31;3449922;84;28173;-87
2022/12/10 03:27:24;;;;;;;70.97;27.07;;;;;;;0.36;100.00;99792.61;3443294;84;98577;-88
2022/12/10 03:32:28;;;;;;;75.07;30.13;;;;;;;0.35;100.00;99804.01;3447831;84;27488;-87
2022/12/10 03:37:29;;;;;;;67.80;29.83;;;;;;;0.29;100.00;99801.80;3441827;84;98527;-87
2022/12/10 03:42:30;;;;;;;63.53;25.60;;;;;;;0.30;100.00;99814.20;3449544;84;31230;-87
2022/12/10 03:47:32;;;;;;;72.20;28.03;;;;;;;0.27;100.00;99816.19;3443681;82;98561;-87
2022/12/10 03:52:33;;;;;;;62.07;25.40;;;;;;;0.30;100.00;99824.48;3450105;84;26253;-88
2022/12/10 03:57:35;;;;;;;64.80;27.73;;;;;;;0.30;100.00;99821.77;3443731;84;98514;-88
2022/12/10 04:02:35;;;;;;;58.67;23.77;;;;;;;0.32;100.00;99832.25;3458379;84;26246;-87
2022/12/10 04:07:36;;;;;;;58.23;24.50;;;;;;;0.35;100.00;99825.66;3453028;83;98554;-88
2022/12/10 04:12:37;;;;;;;53.03;24.20;;;;;;;0.37;100.00;99829.38;3453853;84;26346;-87
2022/12/10 04:17:38;;;;;;;51.43;22.87;;;;;;;0.35;100.00;99818.89;3446184;83;98397;-88
2022/12/10 04:27:58;;;;;;;53.43;23.23;;;;;;;0.30;100.00;99819.07;3450915;83;98315;-87
2022/12/10 04:32:59;;;;;;;54.20;23.57;;;;;;;0.28;100.00;99811.81;3457787;84;26772;-87
2022/12/10 04:37:59;;;;;;;49.47;22.10;;;;;;;0.30;100.00;99817.72;3453120;82;98234;-86
2022/12/10 04:43:00;;;;;;;43.87;20.07;;;;;;;0.35;100.00;99819.44;3455565;84;26541;-86
2022/12/10 04:48:01;;;;;;;50.77;20.23;;;;;;;0.40;100.00;99821.39;3451936;83;98552;-86
2022/12/10 04:53:02;;;;;;;46.27;20.57;;;;;;;0.43;100.00;99828.07;3458682;84;26035;-87
2022/12/10 04:58:02;;;;;;;45.80;19.30;;;;;;;0.43;100.00;99830.23;3451524;83;98247;-87
2022/12/10 05:03:03;;;;;;;60.33;24.87;;;;;;;0.46;100.00;99824.73;3449189;84;25941;-87
2022/12/10 05:08:04;;;;;;;59.40;25.70;;;;;;;0.47;100.00;99827.13;3443799;82;98162;-87
2022/12/10 05:13:05;;;;;;;54.07;22.20;;;;;;;0.45;100.00;99830.69;3449464;84;33357;-86
2022/12/10 05:18:06;;;;;;;62.57;25.53;;;;;;;0.46;100.00;99829.59;3443726;83;98299;-86
2022/12/10 05:28:30;;;;;;;89.63;35.97;;;;;;;0.45;100.00;99833.97;3440442;84;25999;-86
2022/12/10 05:33:31;;;;;;;86.93;35.17;;;;;;;0.46;100.00;99839.07;3443654;82;98840;-87
2022/12/10 05:38:34;;;;;;;84.90;35.20;;;;;;;0.43;100.00;99837.00;3450883;84;33368;-87
2022/12/10 05:43:35;;;;;;;69.97;28.97;;;;;;;0.46;100.00;99847.73;3443668;82;98865;-86
2022/12/10 05:48:36;;;;;;;72.20;29.97;;;;;;;0.45;100.00;99842.09;3449102;84;33383;-87
2022/12/10 05:53:37;;;;;;;73.85;30.60;;;;;;;0.47;100.00;99845.27;3443796;82;98614;-87
2022/12/10 05:58:40;;;;;;;79.63;34.13;;;;;;;0.44;100.00;99848.63;3449746;84;32898;-87
2022/12/10 06:03:42;;;;;;;72.08;29.87;;;;;;;0.32;100.00;99837.66;3440153;83;98511;-87
2022/12/10 06:08:42;;;;;;;87.90;36.37;;;;;;;0.39;100.00;99845.52;3451062;84;32960;-87
2022/12/10 06:13:44;;;;;;;78.78;31.70;;;;;;;0.36;100.00;99858.36;3442197;82;98528;-88
2022/12/10 06:18:45;;;;;;;84.53;34.27;;;;;;;0.35;100.00;99860.84;3449688;84;33422;-87
2022/12/10 06:23:47;;;;;;;82.80;33.33;;;;;;;0.36;100.00;99858.91;3441649;82;98623;-87
2022/12/10 06:28:49;;;;;;;90.30;36.17;;;;;;;0.37;100.00;99860.50;3448767;84;27747;-86
2022/12/10 06:33:52;;;;;;;78.30;33.40;;;;;;;0.37;100.00;99866.72;3441955;84;98716;-86
2022/12/10 06:38:52;;;;;;;86.47;33.03;;;;;;;0.35;100.00;99858.13;3449781;84;25894;-87
2022/12/10 06:43:53;;;;;;;71.67;29.47;;;;;;;0.34;100.00;99859.80;3443455;83;98624;-87
2022/12/10 06:48:54;;;;;;;90.13;37.67;;;;;;;0.38;100.00;99860.73;3449249;84;32893;-87
2022/12/10 06:53:55;;;;;;;88.13;33.03;;;;;;;0.36;100.00;99861.08;3443431;83;98568;-86
2022/12/10 06:58:56;;;;;;;81.70;32.80;;;;;;;0.31;100.00;99865.30;3449813;84;33446;-86
2022/12/10 07:03:57;;;;;;;84.73;32.53;;;;;;;0.35;100.00;99868.16;3452220;83;98536;-86
2022/12/10 07:08:58;;;;;;;82.07;32.77;;;;;;;0.36;100.00;99860.27;3456898;84;33006;-86
2022/12/10 07:13:59;;;;;;;78.00;32.07;;;;;;;0.36;100.00;99865.13;3449948;82;98473;-86
2022/12/10 07:19:02;;;;;;;85.70;35.10;;;;;;;0.38;100.00;99867.49;3458608;84;32095;-86
2022/12/10 07:24:07;;;;;;;85.80;35.47;;;;;;;0.36;100.00;99861.62;3452033;83;98630;-86
2022/12/10 07:29:16;;;;;;;78.60;34.50;;;;;;;0.35;100.00;99858.13;3454148;84;25836;-86
2022/12/10 07:34:17;;;;;;;76.28;35.28;;;;;;;0.37;100.00;99860.50;3448547;83;98476;-86
2022/12/10 07:39:18;;;;;;;83.63;33.30;;;;;;;0.33;100.00;99863.06;3456190;84;33489;-86
2022/12/10 07:44:22;;;;;;;72.77;34.40;;;;;;;0.35;100.00;99853.27;3449344;83;98929;-86
2022/12/10 07:49:23;;;;;;;78.07;35.80;;;;;;;0.30;100.00;99855.60;3457444;84;32944;-86
2022/12/10 07:54:24;;;;;;;66.28;31.68;;;;;;;0.32;100.00;99859.31;3449829;83;99053;-89
2022/12/10 07:59:25;;;;;;;67.90;29.97;;;;;;;0.34;100.00;99857.09;3454315;84;33539;-88
2022/12/10 08:04:29;;;;;;;65.43;28.57;;;;;;;0.34;100.00;99863.86;3441748;83;98845;-87
2022/12/10 08:09:31;;;;;;;64.60;29.47;;;;;;;0.34;100.00;99870.63;3443427;84;32965;-87
2022/12/10 08:14:32;;;;;;;66.87;27.80;;;;;;;0.33;100.00;99880.65;3442953;83;98553;-87
2022/12/10 08:19:33;;;;;;;65.90;28.60;;;;;;;0.37;100.00;99883.50;3446603;84;32914;-88
2022/12/10 08:24:34;;;;;;;57.70;26.83;;;;;;;0.36;100.00;99880.02;3431396;83;98632;-87
2022/12/10 08:29:35;;;;;;;57.78;25.97;;;;;;;0.39;100.00;99888.83;3447204;84;33152;-87
2022/12/10 08:34:35;;;;;;;54.50;26.20;;;;;;;0.43;100.00;99882.20;3443069;84;98527;-87
2022/12/10 08:39:36;;;;;;;57.58;26.50;;;;;;;0.38;100.00;99889.14;3447309;84;33016;-88
2022/12/10 08:44:37;;;;;;;52.30;26.73;;;;;;;0.38;100.00;99881.83;3440919;82;98491;-87
2022/12/10 08:49:38;;;;;;;54.30;25.90;;;;;;;0.37;100.00;99885.66;3450746;84;30276;-87
2022/12/10 08:54:38;;;;;;;52.30;23.45;;;;;;;0.40;100.00;99894.47;3441599;83;98599;-88
2022/12/10 08:59:39;;;;;;;45.53;21.03;;;;;;;0.46;100.00;99900.52;3446331;84;31667;-88
2022/12/10 09:04:42;;;;;;;41.47;20.67;;;;;;;0.48;100.00;99904.50;3439601;84;98737;-87
2022/12/10 09:09:43;;;;;;;46.70;20.60;;;;;;;0.54;100.00;99904.55;3443938;84;28170;-87
2022/12/10 09:14:43;;;;;;;43.07;20.17;;;;;;;0.60;100.00;99905.97;3438365;84;98916;-87
2022/12/10 09:19:44;;;;;;;40.53;19.20;;;;;;;0.63;100.00;99904.52;3445879;84;32811;-86
2022/12/10 09:24:45;;;;;;;42.23;19.70;;;;;;;0.66;100.00;99908.73;3438649;84;99107;-88
2022/12/10 09:29:46;;;;;;;39.00;18.93;;;;;;;0.70;100.00;99906.16;3449121;84;31589;-86
2022/12/10 09:34:52;;;;;;;34.37;17.17;;;;;;;0.68;100.00;99899.74;3442260;84;98680;-87
2022/12/10 09:39:53;;;;;;;38.42;18.20;;;;;;;0.66;100.00;99899.25;3448562;84;26519;-88
2022/12/10 09:50:27;;;;;;;39.73;16.97;;;;;;;0.67;100.00;99888.65;3514557;82;32826;-90
2022/12/10 09:55:39;;;;;;;36.05;16.80;;;;;;;0.65;100.00;99876.55;3520612;82;99045;-93
2022/12/10 10:00:45;;;;;;;34.05;17.27;;;;;;;0.70;100.00;99881.25;3538863;83;31139;-93
2022/12/10 10:05:50;;;;;;;31.50;15.80;;;;;;;0.76;100.00;99880.48;3536798;82;99316;-92
2022/12/10 10:10:51;;;;;;;36.17;16.47;;;;;;;0.80;100.00;99876.02;3508784;83;26474;-94
2022/12/10 10:15:52;;;;;;;36.07;18.97;;;;;;;0.84;100.00;99880.48;3488237;83;98878;-92
2022/12/10 10:21:05;;;;;;;32.53;15.40;;;;;;;0.85;100.00;99870.42;3429067;85;32355;-93
2022/12/10 10:26:06;;;;;;;35.97;18.13;;;;;;;0.98;100.00;99876.16;3487974;83;98647;-92
2022/12/10 10:31:23;;;;;;;36.93;18.53;;;;;;;1.01;100.00;99874.16;3519820;81;31640;-92
2022/12/10 10:36:29;;;;;;;;;;;;;;;1.07;100.00;99883.14;3552220;81;98512;-91
2022/12/10 10:41:40;;;;;;;36.73;18.20;;;;;;;1.02;100.00;99875.75;3554645;82;32907;-93
2022/12/10 10:46:43;;;;;;;40.30;18.20;;;;;;;1.12;100.00;99888.92;3593159;81;98465;-91
2022/12/10 10:51:47;;;;;;;40.50;18.13;;;;;;;1.03;100.00;99874.62;3508404;82;31756;-92
2022/12/10 10:56:48;;;;;;;33.67;17.25;;;;;;;1.05;100.00;99869.69;3567327;81;98676;-95
2022/12/10 11:01:56;;;;;;;35.17;17.27;;;;;;;1.13;100.00;99870.99;3559023;83;31648;-92
2022/12/10 11:07:01;;;;;;;31.47;16.50;;;;;;;1.01;100.00;99866.03;3551132;83;98456;-91
2022/12/10 11:12:07;;;;;;;34.40;18.07;;;;;;;1.02;100.00;99854.88;3447481;84;25966;-93
2022/12/10 11:17:16;;;;;;;34.88;16.15;;;;;;;0.97;100.00;99864.55;3594547;81;98371;-92
2022/12/10 11:22:31;;;;;;;34.17;17.37;;;;;;;0.94;100.00;99864.41;3511093;83;25870;-91
2022/12/10 11:27:49;;;;;;;32.23;15.88;;;;;;;0.93;100.00;99853.34;3574398;81;98687;-91
2022/12/10 11:33:13;;;;;;;35.73;16.83;;;;;;;0.89;100.00;99861.88;3620698;81;27719;-90
2022/12/10 11:38:34;;;;;;;35.60;17.53;;;;;;;0.93;100.00;99858.77;3619748;81;27231;-92
2022/12/10 11:44:23;;;;;;;32.78;14.93;;;;;;;0.91;100.00;99856.92;3572318;81;98645;-92
2022/12/10 11:49:42;;;;;;;35.50;16.40;;;;;;;0.87;100.00;99855.98;3490070;83;25964;-90
2022/12/10 11:55:15;;;;;;;34.78;16.67;;;;;;;0.86;100.00;99858.46;3502064;84;98755;-91
2022/12/10 12:00:27;;;;;;;31.87;15.17;;;;;;;0.85;100.00;99846.05;3507632;83;29177;-91
2022/12/10 12:05:49;;;;;;;31.77;14.73;;;;;;;0.90;100.00;99840.45;3499952;84;98807;-91
2022/12/10 12:11:21;;;;;;;33.83;14.40;;;;;;;0.94;100.00;99839.45;3503822;83;25935;-91
2022/12/10 12:16:33;;;;;;;33.50;15.90;;;;;;;0.94;100.00;99847.58;3498155;83;98909;-93
2022/12/10 12:21:35;;;;;;;31.27;15.17;;;;;;;0.86;100.00;99837.59;3508050;83;27233;-93
2022/12/10 12:26:47;;;;;;;32.42;15.00;;;;;;;0.83;100.00;99845.01;3503245;83;98812;-91
2022/12/10 12:32:23;;;;;;;30.63;15.17;;;;;;;0.77;100.00;99846.31;3506780;84;27278;-93
2022/12/10 12:37:49;;;;;;;34.23;16.10;;;;;;;0.68;100.00;99856.42;3498968;82;98799;-94
2022/12/10 12:42:58;;;;;;;32.07;16.23;;;;;;;0.60;100.00;99859.94;3507902;83;26649;-93
2022/12/10 12:48:28;;;;;;;28.30;14.83;;;;;;;0.57;100.00;99867.92;3487231;82;98596;-94
2022/12/10 12:53:29;;;;;;;32.47;16.70;;;;;;;0.54;100.00;99872.62;3547575;81;123296;-93
2022/12/10 12:59:02;;;;;;;31.33;15.50;;;;;;;0.54;100.00;99874.78;3463181;84;31618;-94
2022/12/10 13:04:04;;;;;;;30.63;14.13;;;;;;;0.46;100.00;99874.27;3516881;82;98893;-96
2022/12/10 13:09:17;;;;;;;36.07;17.30;;;;;;;0.42;100.00;99878.72;3550475;82;26027;-93
2022/12/10 13:14:35;;;;;;;34.87;16.97;;;;;;;0.45;100.00;99876.70;3534434;81;98876;-92
2022/12/10 13:19:36;;;;;;;32.37;16.50;;;;;;;0.44;100.00;99870.28;3552659;82;25869;-93
2022/12/10 13:24:43;;;;;;;33.20;17.43;;;;;;;0.48;100.00;99872.02;3555460;81;98936;-90
2022/12/10 13:29:53;;;;;;;;;;;;;;;0.55;100.00;99869.59;3478216;81;57709;-86
2022/12/10 13:35:17;;;;;;;98.27;44.42;;;;;;;0.54;100.00;99878.84;3481558;83;84509;-87
2022/12/10 13:46:26;;;;;;;40.20;19.87;;;;;;;0.52;100.00;99890.56;3521511;82;98897;-86
2022/12/10 13:51:41;;;;;;;37.37;17.67;;;;;;;0.56;100.00;99891.48;3491736;83;26442;-86
2022/12/10 13:56:48;;;;;;;37.17;18.10;;;;;;;0.61;100.00;99894.59;3481714;83;98303;-87
2022/12/10 14:02:24;;;;;;;;;;;;;;;0.57;100.00;99898.50;3497877;83;25924;-88
2022/12/10 14:07:26;;;;;;;46.42;20.57;;;;;;;0.55;100.00;99904.78;3389499;82;84869;-80
2022/12/10 14:12:32;;;;;;;36.10;15.93;;;;;;;0.56;100.00;99913.14;3343860;87;26326;-79
2022/12/10 14:17:37;;;;;;;32.83;17.23;;;;;;;0.58;100.00;99909.56;3383792;84;98909;-80
2022/12/10 14:22:50;;;;;;;33.47;17.77;;;;;;;0.52;100.00;99908.70;3385383;84;25919;-80
2022/12/10 14:27:54;;;;;;;44.43;23.37;;;;;;;0.50;100.00;99908.24;3364204;83;98895;-79
2022/12/10 14:32:58;;;;;;;67.80;29.70;;;;;;;0.52;100.00;99908.70;3333176;87;27232;-81
2022/12/10 14:38:01;;;;;;;44.83;24.52;;;;;;;0.53;100.00;99915.16;3298372;84;98744;-80
2022/12/10 14:43:24;;;;;;;41.10;19.57;;;;;;;0.53;100.00;99915.70;3300951;88;27742;-80
2022/12/10 14:48:26;;;;;;;37.67;18.80;;;;;;;0.51;100.00;99907.12;3297997;88;25971;-80
2022/12/10 14:53:28;;;;;;;31.90;16.53;;;;;;;0.39;100.00;99909.70;3297394;87;99270;-80
2022/12/10 14:58:39;;;;;;;65.50;26.80;;;;;;;0.37;100.00;99909.22;3334709;87;27655;-80
2022/12/10 15:03:45;;;;;;;42.67;19.75;;;;;;;0.34;100.00;99908.52;3323199;86;98931;-79
2022/12/10 15:08:47;;;;;;;;;;;;;;;0.37;100.00;99908.66;3342300;87;26085;-79
2022/12/10 15:13:53;;;;;;;43.23;19.47;;;;;;;0.27;100.00;99916.31;3320356;86;84864;-80
2022/12/10 15:18:56;;;;;;;37.40;18.00;;;;;;;0.20;100.00;99917.37;3307320;88;26080;-80
2022/12/10 15:24:29;;;;;;;46.40;19.77;;;;;;;0.17;100.00;99919.38;3279411;88;99035;-80
2022/12/10 15:29:34;;;;;;;35.07;17.10;;;;;;;0.15;100.00;99921.59;3315596;87;28857;-79
2022/12/10 15:34:39;;;;;;;41.13;18.50;;;;;;;0.11;100.00;99924.72;3324463;86;98887;-80
2022/12/10 15:39:49;;;;;;;36.50;16.25;;;;;;;0.09;100.00;99931.80;3336951;87;26476;-78
2022/12/10 15:44:55;;;;;;;28.25;13.85;;;;;;;0.01;100.00;99939.34;3328282;87;98919;-79
2022/12/10 15:49:56;;;;;;;;;;;;;;;-0.06;100.00;99937.69;3330198;87;26363;-79
2022/12/10 15:54:58;;;;;;;25.73;12.37;;;;;;;-0.07;100.00;99934.75;3325621;85;84909;-78
2022/12/10 16:00:04;;;;;;;35.40;18.37;;;;;;;-0.04;100.00;99942.78;3334489;87;26703;-78
2022/12/10 16:05:26;;;;;;;34.78;16.57;;;;;;;-0.03;100.00;99948.42;3331875;86;99144;-78
2022/12/10 16:10:28;;;;;;;28.93;14.27;;;;;;;-0.08;100.00;99945.88;3326755;87;25902;-79
2022/12/10 16:15:36;;;;;;;44.08;18.62;;;;;;;-0.20;100.00;99938.38;3323618;87;99187;-79
2022/12/10 16:20:37;;;;;;;27.77;13.73;;;;;;;-0.17;100.00;99954.53;3329081;87;25874;-79
2022/12/10 16:25:43;;;;;;;27.30;13.27;;;;;;;-0.18;100.00;99955.66;3353007;86;99207;-79
2022/12/10 16:30:50;;;;;;;27.93;11.87;;;;;;;-0.18;100.00;99957.58;3430627;84;26753;-78
2022/12/10 16:35:53;;;;;;;33.70;14.17;;;;;;;-0.20;100.00;99965.42;3441995;82;99282;-78
2022/12/10 16:40:54;;;;;;;36.07;15.90;;;;;;;-0.18;100.00;99962.98;3452958;84;27206;-78
2022/12/10 16:45:55;;;;;;;51.53;26.20;;;;;;;-0.16;100.00;99964.27;3426516;84;99079;-78
2022/12/10 16:50:58;;;;;;;31.57;16.15;;;;;;;-0.17;100.00;99962.10;3414705;84;31716;-79
2022/12/10 16:55:59;;;;;;;58.65;21.52;;;;;;;-0.13;100.00;99972.30;3460334;83;99283;-79
2022/12/10 17:01:00;;;;;;;49.70;20.47;;;;;;;-0.12;100.00;99964.42;3497958;83;31659;-78
2022/12/10 17:06:03;;;;;;;42.40;17.63;;;;;;;-0.11;100.00;99967.59;3459740;83;99298;-78
2022/12/10 17:16:51;;;;;;;77.43;45.70;;;;;;;-0.06;100.00;99971.49;3429915;83;98793;-78
2022/12/10 17:21:52;;;;;;;32.00;17.02;;;;;;;-0.01;100.00;99969.17;3436323;84;34183;-79
2022/12/10 17:26:55;;;;;;;29.03;14.07;;;;;;;0.03;100.00;99964.73;3395558;85;98703;-79
2022/12/10 17:31:57;;;;;;;31.10;14.50;;;;;;;0.03;100.00;99966.89;3356628;87;26354;-79
2022/12/10 17:36:57;;;;;;;32.10;15.33;;;;;;;0.07;100.00;99965.12;3395625;83;98409;-78
2022/12/10 17:41:59;;;;;;;28.50;14.37;;;;;;;0.06;100.00;99966.81;3393392;86;31689;-79
2022/12/10 17:47:00;;;;;;;25.47;12.87;;;;;;;0.06;100.00;99961.40;3398942;85;98451;-78
2022/12/10 17:52:01;;;;;;;25.60;12.77;;;;;;;0.06;100.00;99958.12;3391756;85;31636;-79
2022/12/10 17:57:02;;;;;;;25.00;12.57;;;;;;;0.08;100.00;99959.97;3395525;83;98679;-79
2022/12/10 18:02:03;;;;;;;25.27;11.60;;;;;;;0.07;100.00;99950.81;3401510;86;31696;-79
2022/12/10 18:07:16;;;;;;;26.43;12.57;;;;;;;0.09;100.00;99959.39;3399775;85;98389;-80
2022/12/10 18:12:17;;;;;;;27.03;13.07;;;;;;;0.06;100.00;99960.05;3399448;86;31163;-79
2022/12/10 18:17:17;;;;;;;26.10;13.07;;;;;;;0.07;100.00;99956.22;3385325;85;98409;-79
2022/12/10 18:22:18;;;;;;;26.43;13.33;;;;;;;0.05;100.00;99957.89;3388324;86;32043;-79
2022/12/10 18:27:19;;;;;;;25.07;12.73;;;;;;;0.04;100.00;99962.25;3405264;84;98770;-79
2022/12/10 18:32:20;;;;;;;27.07;13.13;;;;;;;0.03;100.00;99964.19;3443241;85;32352;-79
2022/12/10 18:37:21;;;;;;;24.37;12.50;;;;;;;0.01;100.00;99963.69;3443230;84;98749;-80
2022/12/10 18:42:22;;;;;;;25.97;13.10;;;;;;;-0.04;100.00;99960.36;3446142;84;31744;-80
2022/12/10 18:47:23;;;;;;;22.37;11.83;;;;;;;-0.09;100.00;99964.58;3458401;83;98968;-80
2022/12/10 18:52:24;;;;;;;24.20;12.53;;;;;;;-0.08;100.00;99962.10;3472500;83;28847;-79
2022/12/10 18:57:25;;;;;;;27.33;13.53;;;;;;;-0.07;100.00;99968.55;3427468;84;99234;-79
2022/12/10 19:02:25;;;;;;;25.03;12.90;;;;;;;-0.09;100.00;99970.77;3424842;84;34917;-80
2022/12/10 19:07:26;;;;;;;25.23;11.35;;;;;;;-0.07;100.00;99966.97;3460554;84;99023;-80
2022/12/10 19:12:27;;;;;;;25.30;12.90;;;;;;;-0.09;100.00;99969.41;3471820;85;35555;-79
2022/12/10 19:17:28;;;;;;;22.90;11.73;;;;;;;-0.10;100.00;99967.05;3470009;83;98979;-77
2022/12/10 19:22:29;;;;;;;22.60;11.50;;;;;;;-0.10;100.00;99973.80;3489700;83;34927;-77
2022/12/10 19:27:31;;;;;;;26.47;12.93;;;;;;;-0.13;100.00;99960.12;3460987;82;99020;-77
2022/12/10 19:32:32;;;;;;;25.87;10.97;;;;;;;-0.17;100.00;99965.92;3444032;84;34799;-78
2022/12/10 19:37:33;;;;;;;24.43;12.80;;;;;;;-0.20;100.00;99972.19;3427216;84;99132;-78
2022/12/10 19:42:34;;;;;;;23.60;11.63;;;;;;;-0.22;100.00;99982.53;3425846;84;34835;-79
2022/12/10 19:47:34;;;;;;;23.47;12.60;;;;;;;-0.22;100.00;99970.37;3416851;84;98899;-78
2022/12/10 19:52:35;;;;;;;25.43;13.30;;;;;;;-0.21;100.00;99976.01;3432120;86;33587;-78
2022/12/10 19:57:36;;;;;;;26.47;12.53;;;;;;;-0.21;100.00;99967.89;3424903;85;99205;-78
2022/12/10 20:02:37;;;;;;;26.10;12.97;;;;;;;-0.21;100.00;99973.88;3429270;84;32466;-79
2022/12/10 20:07:38;;;;;;;23.67;11.47;;;;;;;-0.22;100.00;99971.72;3412985;86;98914;-78
2022/12/10 20:12:39;;;;;;;22.67;11.73;;;;;;;-0.22;100.00;99983.66;3429026;84;32454;-80
2022/12/10 20:17:40;;;;;;;25.40;13.37;;;;;;;-0.31;100.00;99979.02;3422017;84;98891;-78
2022/12/10 20:22:41;;;;;;;22.90;12.67;;;;;;;-0.29;100.00;99983.33;3429318;85;32467;-78
2022/12/10 20:27:42;;;;;;;32.17;15.67;;;;;;;-0.33;100.00;99981.80;3435163;84;98936;-78
2022/12/10 20:32:43;;;;;;;36.13;16.10;;;;;;;-0.32;100.00;99977.19;3500365;82;32406;-77
2022/12/10 20:37:45;;;;;;;27.97;12.37;;;;;;;-0.34;100.00;99976.72;3498399;83;98969;-78
2022/12/10 20:42:46;;;;;;;25.90;11.73;;;;;;;-0.33;100.00;99976.95;3510917;82;32418;-77
2022/12/10 20:47:47;;;;;;;28.23;14.07;;;;;;;-0.33;100.00;99983.14;3495638;82;98762;-76
2022/12/10 20:52:48;;;;;;;25.08;12.33;;;;;;;-0.33;100.00;99983.14;3501963;83;32409;-78
2022/12/10 20:57:49;;;;;;;27.07;13.83;;;;;;;-0.37;100.00;99982.98;3498544;83;99104;-77
2022/12/10 21:02:50;;;;;;;24.90;12.05;;;;;;;-0.34;100.00;99978.08;3505329;82;25958;-78
2022/12/10 21:07:51;;;;;;;24.53;11.60;;;;;;;-0.36;100.00;99968.34;3481905;83;99227;-78
2022/12/10 21:12:52;;;;;;;33.80;14.87;;;;;;;-0.36;100.00;99961.59;3505797;83;26368;-78
2022/12/10 21:17:53;;;;;;;29.53;13.83;;;;;;;-0.35;100.00;99958.34;3503554;82;99159;-78
2022/12/10 21:22:53;;;;;;;30.83;13.67;;;;;;;-0.37;100.00;99955.72;3504173;83;26507;-78
2022/12/10 21:27:54;;;;;;;26.47;13.53;;;;;;;-0.37;100.00;99961.13;3484059;83;98637;-78
2022/12/10 21:32:55;;;;;;;28.17;13.80;;;;;;;-0.37;100.00;99970.58;3430526;84;26498;-78
2022/12/10 21:37:56;;;;;;;27.83;12.77;;;;;;;-0.40;100.00;99959.84;3414927;85;99193;-76
2022/12/10 21:43:15;;;;;;;27.97;13.93;;;;;;;-0.38;100.00;99963.59;3419316;84;26324;-80
2022/12/10 21:48:21;;;;;;;26.80;12.97;;;;;;;-0.37;100.00;99966.77;3421838;86;29122;-79
2022/12/10 21:53:21;;;;;;;26.90;12.47;;;;;;;-0.38;100.00;99960.89;3418575;84;99106;-79
2022/12/10 21:58:22;;;;;;;24.70;12.77;;;;;;;-0.40;100.00;99961.77;3423195;84;32886;-78
2022/12/10 22:03:24;;;;;;;28.83;13.70;;;;;;;-0.47;100.00;99960.30;3418466;85;98834;-78
2022/12/10 22:08:25;;;;;;;30.00;13.60;;;;;;;-0.50;100.00;99958.02;3425665;84;33166;-80
2022/12/10 22:13:25;;;;;;;27.10;12.97;;;;;;;-0.53;100.00;99954.03;3413286;84;98848;-79
2022/12/10 22:18:26;;;;;;;29.50;14.37;;;;;;;-0.51;100.00;99950.45;3425960;86;32945;-78
2022/12/10 22:23:28;;;;;;;29.05;13.65;;;;;;;-0.50;100.00;99957.44;3425063;85;99143;-79
2022/12/10 22:28:29;;;;;;;31.87;13.90;;;;;;;-0.48;100.00;99953.08;3446780;84;32696;-79
2022/12/10 22:33:30;;;;;;;27.52;13.98;;;;;;;-0.47;100.00;99956.02;3481355;84;98879;-80
2022/12/10 22:38:31;;;;;;;42.17;16.60;;;;;;;-0.48;100.00;99953.88;3468138;83;31118;-80
2022/12/10 22:43:33;;;;;;;28.47;13.77;;;;;;;-0.50;100.00;99947.20;3473764;83;99028;-81
2022/12/10 22:48:36;;;;;;;37.10;16.13;;;;;;;-0.48;100.00;99948.48;3480430;83;32580;-80
2022/12/10 22:53:37;;;;;;;31.33;15.10;;;;;;;-0.47;100.00;99953.55;3476204;83;99133;-79
2022/12/10 22:58:38;;;;;;;29.90;14.77;;;;;;;-0.47;100.00;99941.14;3472768;83;33404;-79
2022/12/10 23:03:39;;;;;;;31.37;14.58;;;;;;;-0.47;100.00;99935.73;3461954;83;99103;-79
2022/12/10 23:08:39;;;;;;;31.23;14.53;;;;;;;-0.44;100.00;99931.84;3477736;83;32848;-80
2022/12/10 23:13:42;;;;;;;30.55;13.45;;;;;;;-0.42;100.00;99929.06;3469153;83;99188;-80
2022/12/10 23:18:48;;;;;;;26.73;12.53;;;;;;;-0.47;100.00;99928.44;3473099;83;33468;-80
2022/12/10 23:23:47;;;;;;;28.30;15.67;;;;;;;-0.49;100.00;99921.22;3468802;83;98860;-79
2022/12/10 23:28:49;;;;;;;31.53;14.73;;;;;;;-0.53;100.00;99926.20;3458710;83;32971;-79
2022/12/10 23:33:49;;;;;;;28.27;14.40;;;;;;;-0.53;100.00;99926.20;3409263;84;99015;-79
2022/12/10 23:38:50;;;;;;;30.77;14.07;;;;;;;-0.51;100.00;99913.19;3428495;84;33438;-79
2022/12/10 23:43:51;;;;;;;30.30;13.83;;;;;;;-0.50;100.00;99926.36;3400404;84;99180;-79
2022/12/10 23:48:52;;;;;;;23.57;12.33;;;;;;;-0.49;100.00;99921.76;3404037;84;32953;-79